createdAt,value
2017-07-01T00:00:22.725Z,31.00
2017-07-01T00:02:52.316Z,31.40
2017-07-01T00:05:29.744Z,32.20
2017-07-01T00:07:59.256Z,36.40
2017-07-01T00:10:28.685Z,32.30
2017-07-01T00:12:58.062Z,32.60
2017-07-01T00:15:27.642Z,31.30
2017-07-01T00:17:56.334Z,32.10
2017-07-01T00:20:25.222Z,33.50
2017-07-01T00:22:54.608Z,29.60
2017-07-01T00:25:24.292Z,32.70
2017-07-01T00:27:53.978Z,35.30
2017-07-01T00:30:23.307Z,35.20
2017-07-01T00:32:52.749Z,35.30
2017-07-01T00:35:22.458Z,34.50
2017-07-01T00:37:52.886Z,34.00
2017-07-01T00:40:21.748Z,34.40
2017-07-01T00:42:50.503Z,33.60
2017-07-01T00:45:20.074Z,33.80
2017-07-01T00:47:49.689Z,34.20
2017-07-01T00:50:19.263Z,33.90
2017-07-01T00:52:48.576Z,35.20
2017-07-01T00:55:17.872Z,32.80
2017-07-01T00:57:47.279Z,30.70
2017-07-01T01:00:16.300Z,32.20
2017-07-01T01:02:45.159Z,33.00
2017-07-01T01:05:14.240Z,33.00
2017-07-01T01:07:45.065Z,32.70
2017-07-01T01:10:14.842Z,31.20
2017-07-01T01:12:45.375Z,32.90
2017-07-01T01:15:15.058Z,32.80
2017-07-01T01:17:44.389Z,33.80
2017-07-01T01:20:13.739Z,31.70
2017-07-01T01:22:42.716Z,31.20
2017-07-01T01:25:11.507Z,31.90
2017-07-01T01:27:40.418Z,32.50
2017-07-01T01:30:10.571Z,30.40
2017-07-01T01:32:40.448Z,29.20
2017-07-01T01:35:09.927Z,30.40
2017-07-01T01:37:40.119Z,31.00
2017-07-01T01:40:09.594Z,31.70
2017-07-01T01:42:39.690Z,31.50
2017-07-01T01:45:08.727Z,32.30
2017-07-01T01:47:37.938Z,33.00
2017-07-01T01:50:07.575Z,33.60
2017-07-01T01:52:37.471Z,35.00
2017-07-01T01:55:07.329Z,35.30
2017-07-01T01:57:36.948Z,38.40
2017-07-01T02:00:06.837Z,37.80
2017-07-01T02:02:36.656Z,39.80
2017-07-01T02:05:06.619Z,40.90
2017-07-01T02:07:36.342Z,41.30
2017-07-01T02:10:07.464Z,43.60
2017-07-01T02:12:36.519Z,43.10
2017-07-01T02:15:07.331Z,44.70
2017-07-01T02:17:38.569Z,45.60
2017-07-01T02:20:16.111Z,46.50
2017-07-01T02:22:46.352Z,46.30
2017-07-01T02:25:26.165Z,46.90
2017-07-01T02:27:56.167Z,46.90
2017-07-01T02:30:26.112Z,48.70
2017-07-01T02:33:12.568Z,49.80
2017-07-01T02:35:56.084Z,49.50
2017-07-01T02:38:25.616Z,50.00
2017-07-01T02:40:55.261Z,50.80
2017-07-01T02:43:24.711Z,51.40
2017-07-01T02:45:55.372Z,50.80
2017-07-01T02:48:50.867Z,50.80
2017-07-01T02:51:28.230Z,52.00
2017-07-01T02:53:58.486Z,51.80
2017-07-01T02:56:28.484Z,53.20
2017-07-01T02:59:04.566Z,54.80
2017-07-01T03:01:34.601Z,55.20
2017-07-01T03:04:04.606Z,54.90
2017-07-01T03:06:34.201Z,56.10
2017-07-01T03:09:04.755Z,57.60
2017-07-01T03:11:35.782Z,57.70
2017-07-01T03:14:05.959Z,57.40
2017-07-01T03:16:35.871Z,58.40
2017-07-01T03:19:04.825Z,59.70
2017-07-01T03:21:37.423Z,60.70
2017-07-01T03:24:07.203Z,60.00
2017-07-01T03:26:37.224Z,60.20
2017-07-01T03:29:11.525Z,60.60
2017-07-01T03:31:41.763Z,60.50
2017-07-01T03:34:11.333Z,61.40
2017-07-01T03:36:42.898Z,60.30
2017-07-01T03:39:22.864Z,60.00
2017-07-01T03:42:02.706Z,60.80
2017-07-01T03:44:58.713Z,60.40
2017-07-01T03:47:30.373Z,60.50
2017-07-01T03:50:01.603Z,61.70
2017-07-01T03:52:31.581Z,62.60
2017-07-01T03:55:01.293Z,62.90
2017-07-01T03:57:50.574Z,64.10
2017-07-01T04:00:20.012Z,64.70
2017-07-01T04:02:49.479Z,65.40
2017-07-01T04:05:19.360Z,64.80
2017-07-01T04:07:49.150Z,66.70
2017-07-01T04:10:18.992Z,67.90
2017-07-01T04:12:50.979Z,68.70
2017-07-01T04:15:20.514Z,69.00
2017-07-01T04:17:49.590Z,69.50
2017-07-01T04:20:36.036Z,69.30
2017-07-01T04:23:07.103Z,70.80
2017-07-01T04:25:36.929Z,70.90
2017-07-01T04:28:06.691Z,72.20
2017-07-01T04:30:36.658Z,71.70
2017-07-01T04:33:06.349Z,71.40
2017-07-01T04:35:35.341Z,71.80
2017-07-01T04:38:04.354Z,71.80
2017-07-01T04:40:45.577Z,72.00
2017-07-01T04:43:27.858Z,71.70
2017-07-01T04:46:05.953Z,73.40
2017-07-01T04:48:45.749Z,73.80
2017-07-01T04:51:41.110Z,74.10
2017-07-01T04:54:16.168Z,74.70
2017-07-01T04:57:03.646Z,74.80
2017-07-01T04:59:46.332Z,74.90
2017-07-01T05:02:16.622Z,76.50
2017-07-01T05:04:49.235Z,76.70
2017-07-01T05:20:59.256Z,77.50
2017-07-01T05:23:30.572Z,83.70
2017-07-01T05:26:05.991Z,84.00
2017-07-01T05:28:39.299Z,83.50
2017-07-01T05:31:27.886Z,83.90
2017-07-01T05:34:07.535Z,84.90
2017-07-01T05:36:39.380Z,85.50
2017-07-01T05:39:21.367Z,85.90
2017-07-01T05:42:10.890Z,85.30
2017-07-01T05:44:46.888Z,85.70
2017-07-01T05:47:15.997Z,85.90
2017-07-01T05:49:44.805Z,86.50
2017-07-01T05:52:14.909Z,85.80
2017-07-01T05:54:44.546Z,86.60
2017-07-01T05:57:14.479Z,86.50
2017-07-01T05:59:46.402Z,85.70
2017-07-01T06:02:27.868Z,86.10
2017-07-01T06:04:57.828Z,86.00
2017-07-01T06:07:27.545Z,85.10
2017-07-01T06:13:03.890Z,87.10
2017-07-01T06:15:44.650Z,89.00
2017-07-01T06:18:22.142Z,89.00
2017-07-01T06:20:59.020Z,88.80
2017-07-01T06:23:48.268Z,90.40
2017-07-01T06:26:24.220Z,90.50
2017-07-01T06:29:04.888Z,90.40
2017-07-01T06:31:54.798Z,90.50
2017-07-01T06:34:49.589Z,90.50
2017-07-01T06:37:20.373Z,90.90
2017-07-01T06:39:50.290Z,90.90
2017-07-01T06:42:20.695Z,91.20
2017-07-01T06:44:53.387Z,92.10
2017-07-01T06:47:23.454Z,92.00
2017-07-01T06:49:53.489Z,92.10
2017-07-01T06:52:24.872Z,92.90
2017-07-01T06:54:54.729Z,93.20
2017-07-01T06:57:24.671Z,93.70
2017-07-01T06:59:54.327Z,94.40
2017-07-01T07:02:24.129Z,95.50
2017-07-01T07:04:54.231Z,95.30
2017-07-01T07:07:23.640Z,95.30
2017-07-01T07:09:53.211Z,95.90
2017-07-01T07:12:22.973Z,96.30
2017-07-01T07:14:53.134Z,95.40
2017-07-01T07:17:23.061Z,95.40
2017-07-01T07:19:53.349Z,95.50
2017-07-01T07:22:24.213Z,95.20
2017-07-01T07:24:54.033Z,95.30
2017-07-01T07:27:23.778Z,95.50
2017-07-01T07:29:53.196Z,95.20
2017-07-01T07:32:23.000Z,95.80
2017-07-01T07:34:52.705Z,95.50
2017-07-01T07:37:22.510Z,95.10
2017-07-01T07:39:51.930Z,94.60
2017-07-01T07:42:21.205Z,94.80
2017-07-01T07:44:50.618Z,94.70
2017-07-01T07:47:20.117Z,94.50
2017-07-01T07:49:49.575Z,94.70
2017-07-01T07:52:19.183Z,94.10
2017-07-01T07:54:49.141Z,94.30
2017-07-01T07:57:17.943Z,94.30
2017-07-01T07:59:47.363Z,93.80
2017-07-01T08:02:17.008Z,94.10
2017-07-01T08:04:46.512Z,93.70
2017-07-01T08:07:16.153Z,93.50
2017-07-01T08:09:45.742Z,93.10
2017-07-01T08:12:15.306Z,92.80
2017-07-01T08:14:44.908Z,93.70
2017-07-01T08:17:14.412Z,94.20
2017-07-01T08:19:43.844Z,94.60
2017-07-01T08:22:13.468Z,94.80
2017-07-01T08:24:44.477Z,94.60
2017-07-01T08:27:14.074Z,94.40
2017-07-01T08:29:43.425Z,94.20
2017-07-01T08:32:12.813Z,94.30
2017-07-01T08:34:42.354Z,94.20
2017-07-01T08:37:12.035Z,94.40
2017-07-01T08:39:41.333Z,95.10
2017-07-01T08:42:11.085Z,95.20
2017-07-01T08:44:40.982Z,95.30
2017-07-01T08:47:10.269Z,95.10
2017-07-01T08:49:39.697Z,95.50
2017-07-01T08:52:08.977Z,95.80
2017-07-01T08:54:38.262Z,95.60
2017-07-01T08:57:07.446Z,96.30
2017-07-01T08:59:36.874Z,96.00
2017-07-01T09:02:06.174Z,95.10
2017-07-01T09:04:35.596Z,95.30
2017-07-01T09:07:04.964Z,94.40
2017-07-01T09:09:34.906Z,94.30
2017-07-01T09:12:04.354Z,94.30
2017-07-01T09:14:33.955Z,94.60
2017-07-01T09:17:03.348Z,93.90
2017-07-01T09:19:32.681Z,94.60
2017-07-01T09:22:02.231Z,93.30
2017-07-01T09:24:31.556Z,92.90
2017-07-01T09:27:01.859Z,93.40
2017-07-01T09:29:31.039Z,93.70
2017-07-01T09:32:00.433Z,93.60
2017-07-01T09:34:30.904Z,92.60
2017-07-01T09:37:00.184Z,92.60
2017-07-01T09:39:29.732Z,92.70
2017-07-01T09:41:59.040Z,92.80
2017-07-01T09:44:28.507Z,92.90
2017-07-01T09:46:57.922Z,92.40
2017-07-01T09:49:27.417Z,91.90
2017-07-01T09:51:56.680Z,92.40
2017-07-01T09:54:26.975Z,91.90
2017-07-01T09:56:56.239Z,91.80
2017-07-01T09:59:25.604Z,92.20
2017-07-01T10:01:54.946Z,92.00
2017-07-01T10:04:24.367Z,91.40
2017-07-01T10:06:53.751Z,91.50
2017-07-01T10:09:23.068Z,91.70
2017-07-01T10:11:52.554Z,91.30
2017-07-01T10:14:21.924Z,91.20
2017-07-01T10:16:52.036Z,90.60
2017-07-01T10:19:21.150Z,90.50
2017-07-01T10:21:50.556Z,91.10
2017-07-01T10:24:20.210Z,91.00
2017-07-01T10:26:49.593Z,91.30
2017-07-01T10:29:19.905Z,90.60
2017-07-01T10:31:49.483Z,91.10
2017-07-01T10:34:19.574Z,91.20
2017-07-01T10:36:49.111Z,91.20
2017-07-01T10:39:18.558Z,90.60
2017-07-01T10:41:47.702Z,89.80
2017-07-01T10:44:17.185Z,90.70
2017-07-01T10:46:46.746Z,91.50
2017-07-01T10:49:16.260Z,92.70
2017-07-01T10:51:45.563Z,91.80
2017-07-01T10:54:14.702Z,91.50
2017-07-01T10:56:43.904Z,91.30
2017-07-01T10:59:13.304Z,91.10
2017-07-01T11:01:42.478Z,91.50
2017-07-01T11:04:11.847Z,91.90
2017-07-01T11:06:41.429Z,92.20
2017-07-01T11:09:10.802Z,91.90
2017-07-01T11:11:40.244Z,93.30
2017-07-01T11:14:09.763Z,92.10
2017-07-01T11:16:39.256Z,91.30
2017-07-01T11:19:08.916Z,91.50
2017-07-01T11:21:38.147Z,91.20
2017-07-01T11:24:07.632Z,91.30
2017-07-01T11:26:37.067Z,91.80
2017-07-01T11:29:06.628Z,91.40
2017-07-01T11:31:36.589Z,91.90
2017-07-01T11:34:06.317Z,91.60
2017-07-01T11:36:35.717Z,91.90
2017-07-01T11:39:05.256Z,92.00
2017-07-01T11:41:34.443Z,93.20
2017-07-01T11:44:03.858Z,92.60
2017-07-01T11:46:33.210Z,93.10
2017-07-01T11:49:02.727Z,92.60
2017-07-01T11:51:39.252Z,92.60
2017-07-01T11:54:08.750Z,93.30
2017-07-01T11:56:44.727Z,92.80
2017-07-01T11:59:14.339Z,92.70
2017-07-01T12:01:44.800Z,93.40
2017-07-01T12:04:14.339Z,93.40
2017-07-01T12:06:43.687Z,93.90
2017-07-01T12:09:13.139Z,95.10
2017-07-01T12:11:42.432Z,94.50
2017-07-01T12:14:11.980Z,94.40
2017-07-01T12:16:41.485Z,94.50
2017-07-01T12:19:10.620Z,95.00
2017-07-01T12:21:39.855Z,94.80
2017-07-01T12:24:09.440Z,94.10
2017-07-01T12:26:38.904Z,93.60
2017-07-01T12:29:08.300Z,93.70
2017-07-01T12:31:38.690Z,94.70
2017-07-01T12:34:08.084Z,94.30
2017-07-01T12:36:37.778Z,94.90
2017-07-01T12:39:07.439Z,95.00
2017-07-01T12:41:36.715Z,96.10
2017-07-01T12:44:06.144Z,95.60
2017-07-01T12:46:35.601Z,94.40
2017-07-01T12:49:05.013Z,95.40
2017-07-01T12:51:34.472Z,95.70
2017-07-01T12:54:03.950Z,95.20
2017-07-01T12:56:33.431Z,96.00
2017-07-01T12:59:02.702Z,96.40
2017-07-01T13:01:32.450Z,95.30
2017-07-01T13:04:01.838Z,95.20
2017-07-01T13:06:31.228Z,95.80
2017-07-01T13:09:00.757Z,95.20
2017-07-01T13:11:30.162Z,94.80
2017-07-01T13:13:59.460Z,94.50
2017-07-01T13:16:29.007Z,95.00
2017-07-01T13:18:58.718Z,94.90
2017-07-01T13:21:28.161Z,94.80
2017-07-01T13:23:57.864Z,94.40
2017-07-01T13:26:27.499Z,94.00
2017-07-01T13:28:57.219Z,93.60
2017-07-01T13:31:26.688Z,92.90
2017-07-01T13:33:56.611Z,92.40
2017-07-01T13:36:26.149Z,92.70
2017-07-01T13:38:55.550Z,92.50
2017-07-01T13:41:25.153Z,93.00
2017-07-01T13:43:54.839Z,92.60
2017-07-01T13:46:24.324Z,93.60
2017-07-01T13:48:53.725Z,93.00
2017-07-01T13:51:23.217Z,93.30
2017-07-01T13:53:52.844Z,91.30
2017-07-01T13:56:25.787Z,93.00
2017-07-01T13:58:55.065Z,92.40
2017-07-01T14:01:24.386Z,92.00
2017-07-01T14:03:53.559Z,91.40
2017-07-01T14:06:22.744Z,92.20
2017-07-01T14:08:52.243Z,93.60
2017-07-01T14:11:28.809Z,93.60
2017-07-01T14:13:58.013Z,93.80
2017-07-01T14:16:27.665Z,94.00
2017-07-01T14:18:57.176Z,93.00
2017-07-01T14:21:26.670Z,93.80
2017-07-01T14:23:56.208Z,93.20
2017-07-01T14:26:26.663Z,94.50
2017-07-01T14:28:56.113Z,94.50
2017-07-01T14:31:25.275Z,94.60
2017-07-01T14:33:54.896Z,94.30
2017-07-01T14:36:25.938Z,95.00
2017-07-01T14:38:55.565Z,95.20
2017-07-01T14:41:24.856Z,96.70
2017-07-01T14:43:54.384Z,95.40
2017-07-01T14:46:23.991Z,95.30
2017-07-01T14:48:53.523Z,95.40
2017-07-01T14:51:22.971Z,97.00
2017-07-01T14:53:52.469Z,96.70
2017-07-01T14:56:21.808Z,98.40
2017-07-01T14:58:51.422Z,97.40
2017-07-01T15:01:20.716Z,99.30
2017-07-01T15:03:49.953Z,97.80
2017-07-01T15:06:19.470Z,98.80
2017-07-01T15:08:49.278Z,98.30
2017-07-01T15:11:18.533Z,97.60
2017-07-01T15:13:47.996Z,95.50
2017-07-01T15:16:17.460Z,97.90
2017-07-01T15:18:46.983Z,98.90
2017-07-01T15:21:16.929Z,99.90
2017-07-01T15:23:46.232Z,99.20
2017-07-01T15:26:15.530Z,98.10
2017-07-01T15:28:44.989Z,95.70
2017-07-01T15:31:14.283Z,95.70
2017-07-01T15:33:43.678Z,94.00
2017-07-01T15:36:12.967Z,94.90
2017-07-01T15:38:43.788Z,95.50
2017-07-01T15:41:13.120Z,93.10
2017-07-01T15:43:42.700Z,94.00
2017-07-01T15:46:12.409Z,92.80
2017-07-01T15:48:41.726Z,93.10
2017-07-01T15:51:11.174Z,94.30
2017-07-01T15:53:40.458Z,94.20
2017-07-01T15:56:09.867Z,91.80
2017-07-01T15:58:39.450Z,91.70
2017-07-01T16:01:20.267Z,91.80
2017-07-01T16:03:49.694Z,92.20
2017-07-01T16:06:19.123Z,92.60
2017-07-01T16:08:49.071Z,93.10
2017-07-01T16:11:19.452Z,92.00
2017-07-01T16:13:48.846Z,92.20
2017-07-01T16:16:18.488Z,92.10
2017-07-01T16:18:48.087Z,91.80
2017-07-01T16:21:17.801Z,94.20
2017-07-01T16:23:47.171Z,92.50
2017-07-01T16:26:16.484Z,91.80
2017-07-01T16:28:45.914Z,91.40
2017-07-01T16:31:15.435Z,91.00
2017-07-01T16:33:45.008Z,92.10
2017-07-01T16:36:14.617Z,91.80
2017-07-01T16:38:45.144Z,87.80
2017-07-01T16:41:14.755Z,89.20
2017-07-01T16:43:44.136Z,85.40
2017-07-01T16:46:13.634Z,89.20
2017-07-01T16:48:43.326Z,86.60
2017-07-01T16:51:12.684Z,83.20
2017-07-01T16:53:42.297Z,84.40
2017-07-01T16:56:11.335Z,83.20
2017-07-01T16:58:40.658Z,82.60
2017-07-01T17:01:10.167Z,74.60
2017-07-01T17:03:39.670Z,71.00
2017-07-01T17:06:09.090Z,70.10
2017-07-01T17:08:38.624Z,69.70
2017-07-01T17:11:08.016Z,70.80
2017-07-01T17:13:37.655Z,68.50
2017-07-01T17:16:07.836Z,68.50
2017-07-01T17:18:37.134Z,68.50
2017-07-01T17:21:06.658Z,67.40
2017-07-01T17:23:36.232Z,62.40
2017-07-01T17:26:05.695Z,64.20
2017-07-01T17:28:36.132Z,64.50
2017-07-01T17:31:05.546Z,64.50
2017-07-01T17:33:34.840Z,64.20
2017-07-01T17:36:04.329Z,64.00
2017-07-01T17:38:33.767Z,61.80
2017-07-01T17:41:03.856Z,59.60
2017-07-01T17:43:33.302Z,64.70
2017-07-01T17:46:02.527Z,61.60
2017-07-01T17:48:31.955Z,60.80
2017-07-01T17:51:01.132Z,61.80
2017-07-01T17:53:30.530Z,60.00
2017-07-01T17:56:00.001Z,59.30
2017-07-01T17:58:29.563Z,56.50
2017-07-01T18:00:59.186Z,55.70
2017-07-01T18:03:28.855Z,57.40
2017-07-01T18:05:58.513Z,60.40
2017-07-01T18:08:27.799Z,55.50
2017-07-01T18:10:57.944Z,54.40
2017-07-01T18:13:27.194Z,54.40
2017-07-01T18:15:56.762Z,57.50
2017-07-01T18:18:26.334Z,53.00
2017-07-01T18:20:55.757Z,55.90
2017-07-01T18:23:24.941Z,60.40
2017-07-01T18:25:54.333Z,56.10
2017-07-01T18:28:23.862Z,56.80
2017-07-01T18:30:53.580Z,47.20
2017-07-01T18:33:23.156Z,49.30
2017-07-01T18:35:52.696Z,47.30
2017-07-01T18:38:22.222Z,47.20
2017-07-01T18:40:51.768Z,48.60
2017-07-01T18:43:22.526Z,47.50
2017-07-01T18:45:52.135Z,47.60
2017-07-01T18:48:21.548Z,42.20
2017-07-01T18:50:50.927Z,43.70
2017-07-01T18:53:20.710Z,46.60
2017-07-01T18:55:50.187Z,47.20
2017-07-01T18:58:19.800Z,45.60
2017-07-01T19:00:49.219Z,45.30
2017-07-01T19:03:18.566Z,46.40
2017-07-01T19:05:47.809Z,50.60
2017-07-01T19:08:17.297Z,46.70
2017-07-01T19:10:46.657Z,50.40
2017-07-01T19:13:16.052Z,51.40
2017-07-01T19:15:46.329Z,48.80
2017-07-01T19:18:15.924Z,49.30
2017-07-01T19:20:45.328Z,48.20
2017-07-01T19:23:14.432Z,49.10
2017-07-01T19:25:44.657Z,48.00
2017-07-01T19:28:13.918Z,46.60
2017-07-01T19:30:43.412Z,49.10
2017-07-01T19:33:12.604Z,47.20
2017-07-01T19:35:42.967Z,47.70
2017-07-01T19:38:12.832Z,46.80
2017-07-01T19:40:42.051Z,46.10
2017-07-01T19:43:12.436Z,50.00
2017-07-01T19:45:42.781Z,49.60
2017-07-01T19:48:12.082Z,50.10
2017-07-01T19:50:41.574Z,50.40
2017-07-01T19:53:11.161Z,53.20
2017-07-01T19:55:40.750Z,41.00
2017-07-01T19:58:09.956Z,45.70
2017-07-01T20:00:39.509Z,46.20
2017-07-01T20:03:08.906Z,51.80
2017-07-01T20:05:38.399Z,48.20
2017-07-01T20:08:08.048Z,35.60
2017-07-01T20:10:38.508Z,37.50
2017-07-01T20:13:08.185Z,37.40
2017-07-01T20:15:38.713Z,35.20
2017-07-01T20:18:08.156Z,35.20
2017-07-01T20:20:37.150Z,35.30
2017-07-01T20:23:05.914Z,34.00
2017-07-01T20:25:34.606Z,36.10
2017-07-01T20:28:03.301Z,40.80
2017-07-01T20:30:33.017Z,44.50
2017-07-01T20:33:02.650Z,46.10
2017-07-01T20:35:31.930Z,44.90
2017-07-01T20:38:01.529Z,44.40
2017-07-01T20:40:31.034Z,42.60
2017-07-01T20:43:00.756Z,44.50
2017-07-01T20:45:30.169Z,38.50
2017-07-01T20:48:00.297Z,44.80
2017-07-01T20:50:29.573Z,49.60
2017-07-01T20:52:58.943Z,47.10
2017-07-01T20:55:28.605Z,48.10
2017-07-01T20:57:57.925Z,48.10
2017-07-01T21:00:27.497Z,47.90
2017-07-01T21:02:57.076Z,49.90
2017-07-01T21:05:26.927Z,49.30
2017-07-01T21:07:55.984Z,51.40
2017-07-01T21:10:25.534Z,55.20
2017-07-01T21:12:54.900Z,53.00
2017-07-01T21:15:24.573Z,52.60
2017-07-01T21:17:54.161Z,51.50
2017-07-01T21:20:23.468Z,51.70
2017-07-01T21:22:52.657Z,54.80
2017-07-01T21:25:22.575Z,53.30
2017-07-01T21:27:51.869Z,56.50
2017-07-01T21:30:21.046Z,51.60
2017-07-01T21:32:50.517Z,52.60
2017-07-01T21:35:19.783Z,47.50
2017-07-01T21:37:49.229Z,54.80
2017-07-01T21:40:18.548Z,53.60
2017-07-01T21:42:47.858Z,48.80
2017-07-01T21:45:17.623Z,49.00
2017-07-01T21:47:47.132Z,53.90
2017-07-01T21:50:17.492Z,48.70
2017-07-01T21:52:46.876Z,50.40
2017-07-01T21:55:16.391Z,51.00
2017-07-01T21:57:45.857Z,48.80
2017-07-01T22:00:15.685Z,53.90
2017-07-01T22:02:45.019Z,53.60
2017-07-01T22:05:14.482Z,56.90
2017-07-01T22:07:43.968Z,52.10
2017-07-01T22:10:13.450Z,50.10
2017-07-01T22:12:43.055Z,51.00
2017-07-01T22:15:12.485Z,51.30
2017-07-01T22:17:41.707Z,54.70
2017-07-01T22:20:11.277Z,50.80
2017-07-01T22:22:40.567Z,53.00
2017-07-01T22:29:26.025Z,49.50
2017-07-01T22:31:55.653Z,52.40
2017-07-01T22:34:25.428Z,54.90
2017-07-01T22:36:55.824Z,50.80
2017-07-01T22:39:25.242Z,50.80
2017-07-01T22:41:54.805Z,52.20
2017-07-01T22:44:24.371Z,49.70
2017-07-01T22:47:00.472Z,47.30
2017-07-01T22:49:29.978Z,49.80
2017-07-01T22:52:00.824Z,49.90
2017-07-01T22:54:30.351Z,48.50
2017-07-01T22:56:59.677Z,47.80
2017-07-01T22:59:28.988Z,46.70
2017-07-01T23:01:58.474Z,47.70
2017-07-01T23:04:28.003Z,48.50
2017-07-01T23:06:57.213Z,45.70
2017-07-01T23:09:26.559Z,46.30
2017-07-01T23:11:55.920Z,46.20
2017-07-01T23:14:25.485Z,46.60
2017-07-01T23:16:55.009Z,46.20
2017-07-01T23:19:24.418Z,49.00
2017-07-01T23:21:53.374Z,45.70
2017-07-01T23:24:22.700Z,47.30
2017-07-01T23:26:52.391Z,47.20
2017-07-01T23:29:21.689Z,48.00
2017-07-01T23:31:51.199Z,48.30
2017-07-01T23:34:20.592Z,45.80
2017-07-01T23:36:49.924Z,46.50
2017-07-01T23:39:19.905Z,44.30
2017-07-01T23:41:49.172Z,44.70
2017-07-01T23:44:18.591Z,47.10
2017-07-01T23:46:48.007Z,45.70
2017-07-01T23:49:17.370Z,47.50
2017-07-01T23:51:46.823Z,47.30
2017-07-01T23:54:17.659Z,47.80
2017-07-01T23:56:47.166Z,47.50
2017-07-01T23:59:16.565Z,47.20
